Terminal Aerodrome Forecast
Issued by NWS

Home | Current Version | Previous Version | Text Only | Print | Product List | Glossary On
Versions: 1 2 3 4 5 6 7 8 9 10 11 12
067
FTUS46 KSEW 170524
TAFPAE
TAF
KPAE 170524Z 1706/1806 13012G18KT P6SM OVC060
     FM171400 16014G22KT P6SM -RA OVC040
     FM180200 18015G25KT P6SM -RA OVC025=

USA.gov is the U.S. government's official web portal to all federal, state and local government web resources and services.